createdAt,value
2017-10-26T00:01:42.742Z,10.90
2017-10-26T00:04:10.590Z,10.90
2017-10-26T00:06:38.173Z,10.90
2017-10-26T00:09:05.754Z,11.00
2017-10-26T00:11:34.129Z,10.90
2017-10-26T00:14:02.470Z,10.90
2017-10-26T00:16:30.071Z,10.90
2017-10-26T00:18:57.649Z,10.90
2017-10-26T00:21:25.656Z,10.90
2017-10-26T00:23:53.235Z,10.90
2017-10-26T00:26:20.808Z,11.00
2017-10-26T00:28:49.182Z,11.00
2017-10-26T00:31:16.762Z,11.00
2017-10-26T00:33:45.131Z,11.00
2017-10-26T00:36:13.480Z,11.00
2017-10-26T00:38:41.083Z,11.00
2017-10-26T00:41:08.728Z,11.10
2017-10-26T00:43:37.090Z,11.10
2017-10-26T00:46:04.683Z,11.10
2017-10-26T00:48:32.598Z,11.10
2017-10-26T00:51:00.179Z,11.20
2017-10-26T00:53:27.754Z,11.20
2017-10-26T00:55:56.109Z,11.20
2017-10-26T00:58:23.691Z,11.20
2017-10-26T01:00:52.037Z,11.00
2017-10-26T01:03:19.619Z,11.00
2017-10-26T01:05:48.245Z,11.00
2017-10-26T01:08:15.819Z,11.00
2017-10-26T01:10:43.401Z,11.00
2017-10-26T01:13:10.993Z,11.00
2017-10-26T01:15:39.324Z,11.00
2017-10-26T01:18:07.121Z,10.90
2017-10-26T01:20:34.691Z,10.90
2017-10-26T01:23:03.537Z,10.80
2017-10-26T01:25:31.097Z,10.80
2017-10-26T01:27:58.703Z,10.80
2017-10-26T01:30:27.080Z,10.70
2017-10-26T01:32:55.444Z,10.70
2017-10-26T01:35:23.025Z,10.70
2017-10-26T01:37:51.357Z,10.60
2017-10-26T01:40:19.116Z,10.60
2017-10-26T01:42:46.683Z,10.60
2017-10-26T01:45:14.521Z,10.60
2017-10-26T01:47:42.106Z,10.50
2017-10-26T01:50:09.655Z,10.60
2017-10-26T01:52:37.246Z,10.50
2017-10-26T01:55:04.916Z,10.40
2017-10-26T01:57:33.411Z,10.40
2017-10-26T02:00:01.743Z,10.40
2017-10-26T02:02:29.593Z,10.40
2017-10-26T02:04:57.149Z,10.40
2017-10-26T02:07:24.722Z,10.40
2017-10-26T02:09:52.298Z,10.30
2017-10-26T02:12:19.855Z,10.30
2017-10-26T02:14:47.528Z,10.20
2017-10-26T02:17:15.400Z,10.30
2017-10-26T02:19:44.232Z,10.30
2017-10-26T02:22:11.804Z,10.20
2017-10-26T02:24:39.369Z,10.30
2017-10-26T02:27:07.049Z,10.20
2017-10-26T02:29:46.426Z,10.20
2017-10-26T02:32:14.035Z,10.20
2017-10-26T02:34:41.619Z,10.20
2017-10-26T02:37:09.982Z,10.10
2017-10-26T02:39:37.550Z,10.10
2017-10-26T02:42:05.150Z,10.10
2017-10-26T02:44:32.765Z,10.10
2017-10-26T02:47:00.725Z,10.20
2017-10-26T02:49:28.374Z,10.10
2017-10-26T02:51:55.954Z,10.10
2017-10-26T02:54:24.327Z,10.10
2017-10-26T02:56:51.922Z,10.10
2017-10-26T02:59:20.312Z,10.10
2017-10-26T03:01:47.906Z,10.10
2017-10-26T03:04:15.778Z,10.10
2017-10-26T03:06:43.373Z,10.10
2017-10-26T03:09:11.732Z,10.20
2017-10-26T03:11:39.320Z,10.10
2017-10-26T03:14:07.660Z,10.10
2017-10-26T03:16:35.334Z,10.00
2017-10-26T03:19:02.932Z,10.00
2017-10-26T03:21:30.847Z,10.00
2017-10-26T03:23:58.418Z,9.90
2017-10-26T03:26:26.030Z,9.90
2017-10-26T03:28:53.617Z,9.90
2017-10-26T03:31:21.183Z,9.90
2017-10-26T03:33:48.824Z,9.80
2017-10-26T03:36:16.392Z,9.80
2017-10-26T03:38:44.007Z,9.90
2017-10-26T03:41:12.365Z,9.90
2017-10-26T03:43:40.022Z,9.90
2017-10-26T03:46:07.594Z,10.00
2017-10-26T03:48:36.259Z,10.10
2017-10-26T03:51:03.836Z,10.10
2017-10-26T03:53:31.490Z,10.10
2017-10-26T03:55:59.103Z,10.20
2017-10-26T03:58:28.641Z,10.20
2017-10-26T04:00:57.247Z,10.10
2017-10-26T04:03:24.885Z,10.10
2017-10-26T04:05:52.833Z,10.10
2017-10-26T04:08:20.424Z,10.20
2017-10-26T04:10:48.011Z,10.20
2017-10-26T04:13:15.638Z,10.10
2017-10-26T04:15:43.801Z,10.20
2017-10-26T04:18:12.459Z,10.10
2017-10-26T04:20:40.092Z,10.20
2017-10-26T04:23:07.691Z,10.20
2017-10-26T04:25:35.253Z,10.20
2017-10-26T04:28:02.849Z,10.30
2017-10-26T04:30:31.356Z,10.30
2017-10-26T04:32:59.227Z,10.40
2017-10-26T04:35:26.814Z,10.40
2017-10-26T04:37:54.430Z,10.40
2017-10-26T04:40:22.795Z,10.40
2017-10-26T04:42:50.424Z,10.40
2017-10-26T04:45:18.027Z,10.40
2017-10-26T04:47:46.381Z,10.50
2017-10-26T04:50:14.345Z,10.50
2017-10-26T04:52:41.989Z,10.50
2017-10-26T04:55:09.582Z,10.30
2017-10-26T04:57:37.200Z,10.20
2017-10-26T05:00:04.788Z,10.30
2017-10-26T05:02:32.405Z,10.20
2017-10-26T05:05:01.999Z,10.20
2017-10-26T05:07:30.807Z,10.20
2017-10-26T05:09:59.039Z,10.10
2017-10-26T05:12:27.238Z,10.10
2017-10-26T05:14:55.640Z,10.00
2017-10-26T05:17:24.278Z,10.00
2017-10-26T05:19:52.615Z,10.10
2017-10-26T05:22:21.146Z,10.00
2017-10-26T05:24:49.325Z,10.00
2017-10-26T05:27:18.609Z,10.00
2017-10-26T05:29:46.621Z,10.00
2017-10-26T05:32:14.686Z,10.00
2017-10-26T05:34:42.274Z,10.10
2017-10-26T05:37:09.876Z,10.10
2017-10-26T05:39:38.347Z,10.20
2017-10-26T05:42:06.716Z,10.20
2017-10-26T05:44:34.308Z,10.20
2017-10-26T05:47:01.906Z,10.20
2017-10-26T05:49:29.533Z,10.20
2017-10-26T05:51:57.159Z,10.20
2017-10-26T05:54:24.760Z,10.20
2017-10-26T05:56:52.366Z,10.20
2017-10-26T05:59:19.936Z,10.20
2017-10-26T06:01:47.795Z,10.10
2017-10-26T06:04:15.377Z,10.10
2017-10-26T06:06:43.726Z,10.10
2017-10-26T06:09:11.353Z,10.10
2017-10-26T06:11:38.971Z,10.10
2017-10-26T06:14:07.313Z,10.10
2017-10-26T06:16:34.971Z,10.10
2017-10-26T06:19:02.842Z,10.10
2017-10-26T06:21:30.437Z,10.10
2017-10-26T06:23:58.783Z,10.20
2017-10-26T06:26:26.397Z,10.20
2017-10-26T06:28:53.984Z,10.20
2017-10-26T06:31:21.598Z,10.40
2017-10-26T06:33:49.968Z,10.70
2017-10-26T06:36:18.350Z,10.80
2017-10-26T06:38:46.747Z,10.80
2017-10-26T06:41:14.350Z,10.80
2017-10-26T06:43:41.942Z,10.90
2017-10-26T06:46:09.542Z,10.90
2017-10-26T06:48:37.125Z,10.90
2017-10-26T06:51:05.009Z,10.90
2017-10-26T06:53:32.595Z,10.90
2017-10-26T06:56:00.184Z,11.00
2017-10-26T06:58:27.793Z,11.00
2017-10-26T07:00:55.378Z,11.10
2017-10-26T07:03:23.754Z,11.20
2017-10-26T07:05:52.144Z,11.20
2017-10-26T07:08:20.576Z,11.20
2017-10-26T07:10:48.140Z,11.20
2017-10-26T07:13:15.742Z,11.20
2017-10-26T07:15:44.082Z,11.30
2017-10-26T07:18:12.155Z,11.30
2017-10-26T07:20:39.745Z,11.30
2017-10-26T07:23:08.109Z,11.40
2017-10-26T07:25:36.481Z,11.50
2017-10-26T07:28:04.094Z,11.50
2017-10-26T07:30:31.680Z,11.60
2017-10-26T07:32:59.286Z,11.70
2017-10-26T07:35:28.019Z,11.70
2017-10-26T07:37:56.378Z,11.70
2017-10-26T07:40:24.070Z,11.70
2017-10-26T07:42:51.687Z,11.70
2017-10-26T07:45:19.266Z,11.70
2017-10-26T07:47:46.861Z,11.90
2017-10-26T07:50:14.455Z,11.90
2017-10-26T07:52:42.322Z,11.90
2017-10-26T07:55:09.893Z,11.90
2017-10-26T07:57:41.380Z,12.00
2017-10-26T08:00:09.033Z,12.10
2017-10-26T08:02:36.645Z,12.10
2017-10-26T08:05:05.026Z,12.20
2017-10-26T08:07:32.607Z,12.20
2017-10-26T08:10:00.210Z,12.10
2017-10-26T08:12:27.842Z,12.20
2017-10-26T08:14:55.465Z,12.20
2017-10-26T08:17:23.821Z,12.50
2017-10-26T08:19:51.769Z,12.50
2017-10-26T08:22:19.437Z,12.50
2017-10-26T08:24:47.019Z,12.50
2017-10-26T08:27:15.383Z,12.50
2017-10-26T08:29:42.965Z,12.50
2017-10-26T08:32:10.611Z,12.50
2017-10-26T08:34:38.194Z,12.60
2017-10-26T08:37:06.558Z,12.70
2017-10-26T08:39:34.895Z,12.60
2017-10-26T08:42:02.659Z,12.70
2017-10-26T08:44:30.285Z,12.80
2017-10-26T08:46:57.883Z,12.80
2017-10-26T08:49:25.503Z,12.80
2017-10-26T08:51:53.104Z,12.80
2017-10-26T08:54:20.685Z,12.80
2017-10-26T08:56:48.286Z,12.90
2017-10-26T08:59:16.063Z,12.90
2017-10-26T09:01:43.672Z,13.00
2017-10-26T09:04:11.257Z,13.10
2017-10-26T09:06:39.997Z,13.30
2017-10-26T09:09:07.578Z,13.30
2017-10-26T09:11:35.138Z,13.50
2017-10-26T09:14:02.735Z,13.70
2017-10-26T09:16:30.316Z,13.80
2017-10-26T09:18:57.912Z,13.80
2017-10-26T09:21:25.504Z,14.00
2017-10-26T09:23:53.845Z,14.60
2017-10-26T09:26:21.446Z,14.50
2017-10-26T09:28:49.018Z,14.70
2017-10-26T09:31:16.676Z,15.30
2017-10-26T09:33:44.242Z,15.70
2017-10-26T09:36:12.247Z,16.20
2017-10-26T09:38:39.835Z,16.60
2017-10-26T09:41:08.191Z,18.10
2017-10-26T09:43:35.789Z,18.00
2017-10-26T09:46:03.357Z,18.80
2017-10-26T09:48:30.949Z,19.80
2017-10-26T09:50:58.521Z,19.50
2017-10-26T09:53:26.160Z,18.80
2017-10-26T09:55:53.843Z,18.50
2017-10-26T09:58:21.430Z,18.10
2017-10-26T10:00:49.794Z,17.80
2017-10-26T10:03:17.362Z,17.80
2017-10-26T10:05:45.747Z,17.30
2017-10-26T10:08:14.087Z,16.90
2017-10-26T10:10:41.670Z,16.90
2017-10-26T10:13:09.267Z,16.60
2017-10-26T10:15:36.863Z,16.70
2017-10-26T10:18:04.437Z,16.40
2017-10-26T10:20:32.022Z,16.40
2017-10-26T10:23:00.375Z,16.30
2017-10-26T10:25:27.974Z,16.20
2017-10-26T10:27:56.316Z,16.00
2017-10-26T10:30:23.917Z,16.00
2017-10-26T10:32:51.502Z,16.10
2017-10-26T10:35:19.148Z,16.00
2017-10-26T10:37:46.723Z,15.80
2017-10-26T10:40:14.295Z,15.90
2017-10-26T10:42:41.869Z,15.90
2017-10-26T10:45:09.458Z,15.90
2017-10-26T10:47:37.817Z,15.90
2017-10-26T10:50:05.394Z,15.90
2017-10-26T10:52:33.091Z,15.90
2017-10-26T10:55:00.649Z,15.50
2017-10-26T10:57:28.231Z,15.50
2017-10-26T11:00:01.446Z,15.70
2017-10-26T11:02:29.269Z,15.70
2017-10-26T11:04:56.856Z,15.40
2017-10-26T11:07:24.433Z,15.60
2017-10-26T11:09:52.035Z,15.80
2017-10-26T11:12:19.622Z,15.90
2017-10-26T11:14:47.214Z,15.70
2017-10-26T11:17:14.790Z,15.50
2017-10-26T11:19:42.402Z,15.50
2017-10-26T11:22:09.977Z,15.40
2017-10-26T11:24:37.551Z,15.50
2017-10-26T11:27:05.161Z,15.50
2017-10-26T11:29:32.736Z,15.60
2017-10-26T11:32:00.331Z,15.80
2017-10-26T11:34:28.690Z,15.70
2017-10-26T11:36:56.506Z,15.70
2017-10-26T11:39:24.074Z,15.70
2017-10-26T11:41:51.647Z,15.80
2017-10-26T11:44:19.245Z,15.70
2017-10-26T11:46:46.811Z,15.40
2017-10-26T11:49:15.182Z,15.80
2017-10-26T11:51:42.766Z,15.80
2017-10-26T11:54:11.150Z,16.30
2017-10-26T11:56:39.497Z,16.30
2017-10-26T11:59:07.074Z,16.30
2017-10-26T12:01:34.684Z,16.40
2017-10-26T12:04:02.269Z,16.40
2017-10-26T12:06:29.873Z,16.30
2017-10-26T12:08:58.226Z,16.30
2017-10-26T12:11:25.784Z,16.30
2017-10-26T12:13:53.390Z,16.50
2017-10-26T12:16:20.991Z,16.60
2017-10-26T12:18:48.578Z,16.60
2017-10-26T12:21:16.906Z,16.10
2017-10-26T12:23:44.522Z,16.10
2017-10-26T12:26:12.106Z,16.10
2017-10-26T12:28:40.851Z,16.20
2017-10-26T12:31:08.402Z,16.20
2017-10-26T12:33:36.029Z,16.30
2017-10-26T12:36:03.762Z,16.30
2017-10-26T12:38:31.354Z,16.30
2017-10-26T12:40:58.948Z,16.20
2017-10-26T12:43:26.525Z,16.10
2017-10-26T12:45:54.936Z,16.30
2017-10-26T12:48:22.505Z,16.20
2017-10-26T12:50:50.119Z,16.30
2017-10-26T12:53:18.474Z,16.40
2017-10-26T12:55:46.322Z,16.40
2017-10-26T12:58:13.893Z,16.30
2017-10-26T13:00:41.473Z,16.30
2017-10-26T13:03:09.060Z,16.40
2017-10-26T13:05:36.615Z,16.30
2017-10-26T13:08:04.210Z,16.40
2017-10-26T13:10:31.779Z,16.40
2017-10-26T13:12:59.701Z,16.50
2017-10-26T13:15:28.063Z,16.50
2017-10-26T13:17:56.503Z,16.50
2017-10-26T13:20:24.102Z,16.70
2017-10-26T13:22:52.472Z,16.60
2017-10-26T13:25:20.850Z,16.60
2017-10-26T13:27:48.471Z,16.60
2017-10-26T13:30:16.096Z,16.60
2017-10-26T13:32:44.450Z,16.70
2017-10-26T13:35:12.274Z,16.70
2017-10-26T13:37:39.893Z,16.70
2017-10-26T13:40:08.279Z,16.70
2017-10-26T13:42:35.889Z,16.70
2017-10-26T13:45:03.475Z,16.60
2017-10-26T13:47:31.082Z,16.50
2017-10-26T13:49:58.665Z,16.50
2017-10-26T13:52:26.320Z,16.60
2017-10-26T13:54:54.138Z,16.60
2017-10-26T13:57:22.497Z,16.50
2017-10-26T13:59:50.089Z,16.50
2017-10-26T14:02:17.632Z,16.60
2017-10-26T14:04:46.027Z,16.40
2017-10-26T14:07:13.615Z,16.40
2017-10-26T14:09:41.367Z,16.40
2017-10-26T14:12:08.949Z,16.40
2017-10-26T14:14:36.718Z,16.30
2017-10-26T14:17:04.319Z,16.30
2017-10-26T14:19:32.647Z,16.20
2017-10-26T14:22:00.267Z,16.20
2017-10-26T14:24:27.851Z,16.30
2017-10-26T14:26:55.458Z,16.30
2017-10-26T14:29:23.088Z,16.30
2017-10-26T14:31:51.100Z,16.30
2017-10-26T14:34:18.796Z,16.30
2017-10-26T14:36:46.438Z,16.40
2017-10-26T14:39:14.035Z,16.30
2017-10-26T14:41:41.631Z,16.40
2017-10-26T14:44:10.381Z,16.20
2017-10-26T14:46:37.982Z,16.20
2017-10-26T14:49:05.615Z,16.20
2017-10-26T14:51:33.220Z,16.20
2017-10-26T14:54:01.606Z,16.30
2017-10-26T14:56:29.275Z,16.20
2017-10-26T14:58:56.913Z,16.20
2017-10-26T15:01:24.816Z,16.30
2017-10-26T15:03:52.427Z,16.30
2017-10-26T15:06:20.183Z,16.20
2017-10-26T15:08:47.811Z,16.20
2017-10-26T15:11:15.514Z,16.10
2017-10-26T15:13:43.679Z,16.20
2017-10-26T15:16:11.282Z,16.10
2017-10-26T15:18:38.918Z,16.10
2017-10-26T15:21:06.574Z,16.10
2017-10-26T15:23:34.916Z,16.00
2017-10-26T15:26:02.986Z,15.90
2017-10-26T15:28:30.592Z,15.90
2017-10-26T15:30:58.265Z,15.90
2017-10-26T15:33:25.934Z,15.90
2017-10-26T15:35:53.624Z,15.90
2017-10-26T15:38:21.454Z,15.90
2017-10-26T15:40:49.090Z,15.80
2017-10-26T15:43:17.052Z,15.70
2017-10-26T15:45:44.721Z,15.60
2017-10-26T15:48:13.745Z,15.40
2017-10-26T15:50:42.451Z,15.40
2017-10-26T15:53:10.215Z,15.30
2017-10-26T15:55:37.849Z,15.30
2017-10-26T15:58:05.483Z,15.30
2017-10-26T16:00:34.558Z,15.10
2017-10-26T16:03:02.982Z,15.10
2017-10-26T16:05:30.586Z,15.00
2017-10-26T16:07:58.227Z,15.10
2017-10-26T16:10:25.843Z,15.10
2017-10-26T16:12:54.664Z,15.10
2017-10-26T16:15:22.450Z,15.10
2017-10-26T16:17:50.061Z,15.10
2017-10-26T16:20:18.515Z,15.00
2017-10-26T16:22:46.114Z,15.00
2017-10-26T16:25:14.753Z,15.00
2017-10-26T16:27:42.364Z,14.90
2017-10-26T16:30:10.971Z,14.90
2017-10-26T16:32:38.742Z,14.80
2017-10-26T16:35:06.533Z,14.80
2017-10-26T16:37:34.455Z,14.80
2017-10-26T16:40:02.054Z,14.80
2017-10-26T16:42:29.941Z,14.80
2017-10-26T16:44:57.598Z,14.80
2017-10-26T16:47:25.170Z,14.80
2017-10-26T16:49:53.571Z,14.70
2017-10-26T16:52:21.206Z,14.70
2017-10-26T16:54:49.612Z,14.60
2017-10-26T16:57:17.274Z,14.60
2017-10-26T16:59:45.114Z,14.60
2017-10-26T17:02:13.532Z,14.50
2017-10-26T17:04:41.207Z,14.50
2017-10-26T17:07:08.878Z,14.50
2017-10-26T17:09:36.566Z,14.40
2017-10-26T17:12:05.450Z,14.30
2017-10-26T17:14:33.960Z,14.20
2017-10-26T17:17:02.404Z,14.20
2017-10-26T17:19:30.852Z,14.20
2017-10-26T17:21:59.233Z,14.20
2017-10-26T17:24:27.734Z,14.20
2017-10-26T17:26:55.346Z,14.20
2017-10-26T17:29:22.983Z,14.20
2017-10-26T17:31:51.724Z,14.10
2017-10-26T17:34:20.766Z,13.90
2017-10-26T17:36:48.602Z,13.90
2017-10-26T17:39:16.207Z,13.90
2017-10-26T17:41:43.812Z,13.70
2017-10-26T17:44:11.553Z,13.60
2017-10-26T17:46:39.123Z,13.50
2017-10-26T17:49:07.015Z,13.40
2017-10-26T17:51:34.612Z,13.30
2017-10-26T17:54:03.132Z,13.20
2017-10-26T17:56:30.799Z,13.10
2017-10-26T17:58:58.460Z,13.10
2017-10-26T18:01:26.146Z,13.00
2017-10-26T18:03:53.971Z,12.90
2017-10-26T18:06:22.030Z,12.90
2017-10-26T18:08:49.690Z,12.80
2017-10-26T18:11:17.461Z,12.80
2017-10-26T18:13:45.208Z,12.70
2017-10-26T18:16:13.587Z,12.60
2017-10-26T18:18:41.242Z,12.60
2017-10-26T18:21:09.662Z,12.50
2017-10-26T18:23:37.369Z,12.50
2017-10-26T18:26:05.041Z,12.50
2017-10-26T18:28:32.996Z,12.50
2017-10-26T18:31:00.615Z,12.50
2017-10-26T18:33:28.307Z,12.50
2017-10-26T18:35:56.041Z,12.40
2017-10-26T18:38:23.710Z,12.40
2017-10-26T18:40:51.325Z,12.30
2017-10-26T18:43:19.699Z,12.20
2017-10-26T18:45:48.315Z,12.20
2017-10-26T18:48:16.741Z,12.10
2017-10-26T18:50:44.620Z,12.10
2017-10-26T18:53:12.259Z,12.10
2017-10-26T18:55:40.039Z,12.00
2017-10-26T18:58:07.729Z,12.00
2017-10-26T19:00:35.955Z,12.00
2017-10-26T19:03:05.035Z,12.00
2017-10-26T19:05:32.870Z,12.10
2017-10-26T19:08:00.519Z,12.20
2017-10-26T19:10:28.954Z,12.40
2017-10-26T19:12:56.596Z,12.30
2017-10-26T19:15:24.206Z,12.40
2017-10-26T19:17:52.893Z,12.50
2017-10-26T19:20:20.579Z,12.50
2017-10-26T19:22:48.205Z,12.50
2017-10-26T19:25:15.924Z,12.50
2017-10-26T19:27:43.645Z,12.60
2017-10-26T19:30:12.025Z,12.60
2017-10-26T19:32:40.393Z,12.60
2017-10-26T19:35:09.161Z,12.60
2017-10-26T19:37:36.793Z,12.60
2017-10-26T19:40:04.556Z,12.70
2017-10-26T19:42:32.268Z,12.70
2017-10-26T19:44:59.909Z,12.70
2017-10-26T19:47:28.329Z,12.80
2017-10-26T19:49:56.051Z,12.80
2017-10-26T19:52:23.719Z,12.90
2017-10-26T19:54:51.771Z,12.90
2017-10-26T19:57:20.478Z,12.90
2017-10-26T19:59:48.105Z,12.90
2017-10-26T20:02:15.714Z,12.80
2017-10-26T20:04:44.114Z,12.80
2017-10-26T20:07:11.727Z,12.80
2017-10-26T20:09:40.143Z,12.90
2017-10-26T20:12:07.875Z,12.90
2017-10-26T20:14:35.546Z,12.90
2017-10-26T20:17:03.141Z,12.90
2017-10-26T20:19:31.096Z,12.90
2017-10-26T20:21:58.739Z,12.90
2017-10-26T20:24:27.128Z,12.90
2017-10-26T20:26:54.813Z,12.90
2017-10-26T20:29:22.522Z,12.90
2017-10-26T20:31:50.454Z,13.00
2017-10-26T20:34:18.162Z,13.00
2017-10-26T20:36:46.116Z,13.00
2017-10-26T20:39:13.681Z,13.00
2017-10-26T20:41:41.275Z,13.00
2017-10-26T20:44:09.636Z,13.10
2017-10-26T20:46:37.987Z,13.10
2017-10-26T20:52:16.923Z,13.20
2017-10-26T20:54:50.182Z,13.10
2017-10-26T20:57:23.223Z,13.10
2017-10-26T20:59:57.706Z,13.10
2017-10-26T21:02:30.873Z,13.10
2017-10-26T21:05:04.059Z,13.10
2017-10-26T21:07:38.015Z,13.10
2017-10-26T21:10:05.620Z,13.00
2017-10-26T21:12:40.120Z,13.00
2017-10-26T21:15:07.712Z,13.10
2017-10-26T21:17:35.347Z,13.10
2017-10-26T21:20:03.027Z,13.10
2017-10-26T21:22:31.418Z,13.10
2017-10-26T21:24:59.544Z,13.10
2017-10-26T21:27:27.147Z,13.10
2017-10-26T21:29:55.542Z,13.20
2017-10-26T21:32:23.140Z,13.20
2017-10-26T21:34:50.766Z,13.10
2017-10-26T21:37:18.390Z,13.10
2017-10-26T21:39:46.793Z,13.10
2017-10-26T21:42:14.673Z,13.10
2017-10-26T21:44:42.302Z,13.10
2017-10-26T21:47:10.766Z,13.00
2017-10-26T21:49:38.364Z,13.00
2017-10-26T21:52:05.952Z,13.10
2017-10-26T21:54:33.863Z,13.10
2017-10-26T21:57:02.265Z,13.10
2017-10-26T21:59:29.839Z,13.10
2017-10-26T22:01:57.442Z,13.10
2017-10-26T22:04:25.030Z,13.10
2017-10-26T22:06:53.798Z,13.10
2017-10-26T22:09:21.392Z,13.10
2017-10-26T22:11:48.996Z,13.20
2017-10-26T22:14:16.644Z,13.20
2017-10-26T22:16:44.230Z,13.20
2017-10-26T22:19:11.834Z,13.10
2017-10-26T22:21:39.404Z,13.10
2017-10-26T22:24:07.369Z,13.10
2017-10-26T22:26:34.952Z,13.00
2017-10-26T22:29:02.525Z,13.00
2017-10-26T22:31:30.098Z,12.90
2017-10-26T22:33:57.684Z,12.90
2017-10-26T22:36:25.576Z,13.00
2017-10-26T22:38:53.171Z,13.00
2017-10-26T22:41:20.870Z,13.00
2017-10-26T22:43:49.249Z,13.00
2017-10-26T22:46:17.594Z,12.90
2017-10-26T22:48:45.243Z,12.90
2017-10-26T22:51:12.851Z,12.90
2017-10-26T22:53:41.535Z,12.70
2017-10-26T22:56:09.914Z,12.70
2017-10-26T22:58:38.286Z,12.60
2017-10-26T23:01:06.651Z,12.60
2017-10-26T23:03:34.992Z,12.50
2017-10-26T23:06:02.708Z,12.50
2017-10-26T23:08:31.119Z,12.40
2017-10-26T23:10:58.983Z,12.40
2017-10-26T23:13:26.565Z,12.40
2017-10-26T23:15:54.158Z,12.40
2017-10-26T23:18:21.861Z,12.40
2017-10-26T23:20:49.484Z,12.50
2017-10-26T23:23:17.887Z,12.50
2017-10-26T23:25:45.467Z,12.50
2017-10-26T23:28:13.412Z,12.50
2017-10-26T23:30:40.999Z,12.50
2017-10-26T23:33:08.594Z,12.50
2017-10-26T23:35:36.201Z,12.50
2017-10-26T23:38:03.773Z,12.50
2017-10-26T23:40:32.152Z,12.50
2017-10-26T23:42:59.742Z,12.40
2017-10-26T23:45:27.384Z,12.40
2017-10-26T23:47:54.968Z,12.40
2017-10-26T23:50:22.561Z,12.40
2017-10-26T23:52:50.901Z,12.30
2017-10-26T23:55:18.582Z,12.30
2017-10-26T23:57:46.170Z,12.40
